createdAt,value
2022-12-09T14:09:31.345Z,3.40
2022-12-09T14:12:00.861Z,3.40
2022-12-09T14:14:27.804Z,3.40
2022-12-09T14:16:55.878Z,3.40
2022-12-09T14:19:25.802Z,3.40
2022-12-09T14:22:21.823Z,3.40
2022-12-09T14:24:59.693Z,3.40
2022-12-09T14:27:31.371Z,3.50
2022-12-09T14:30:22.822Z,3.50
2022-12-09T14:32:50.047Z,3.50
2022-12-09T14:35:44.035Z,3.50
2022-12-09T14:38:35.035Z,3.50
2022-12-09T14:41:20.933Z,3.50
2022-12-09T14:44:07.250Z,3.40
2022-12-09T14:46:37.599Z,3.40
2022-12-09T14:49:28.622Z,3.40
2022-12-09T14:52:02.883Z,3.40
2022-12-09T14:54:35.074Z,3.40
2022-12-09T14:57:05.164Z,3.40
2022-12-09T14:59:32.372Z,3.40
2022-12-09T15:02:01.255Z,3.40
2022-12-09T15:04:40.639Z,3.40
2022-12-09T15:07:21.738Z,3.30
2022-12-09T15:09:55.334Z,3.30
2022-12-09T15:12:38.789Z,3.30
2022-12-09T15:15:11.862Z,3.30
2022-12-09T15:17:43.816Z,3.30
2022-12-09T15:20:41.406Z,3.30
2022-12-09T15:23:16.945Z,3.20
2022-12-09T15:25:52.204Z,3.20
2022-12-09T15:28:26.679Z,3.10
2022-12-09T15:31:00.820Z,3.00
2022-12-09T15:33:31.780Z,3.00
2022-12-09T15:36:22.314Z,3.00
2022-12-09T15:38:57.905Z,2.90
2022-12-09T15:41:52.249Z,2.90
2022-12-09T15:44:24.176Z,2.90
2022-12-09T15:46:54.484Z,2.90
2022-12-09T15:49:29.525Z,2.90
2022-12-09T15:51:57.079Z,2.90
2022-12-09T15:54:29.490Z,2.90
2022-12-09T15:57:00.399Z,2.80
2022-12-09T15:59:33.073Z,2.80
2022-12-09T16:02:01.856Z,2.80
2022-12-09T16:04:36.103Z,2.80
2022-12-09T16:07:12.967Z,2.80
2022-12-09T16:09:40.122Z,2.80
2022-12-09T16:12:28.887Z,2.80
2022-12-09T16:14:56.363Z,2.80
2022-12-09T16:17:27.780Z,2.80
2022-12-09T16:19:54.974Z,2.80
2022-12-09T16:22:24.339Z,2.80
2022-12-09T16:25:17.363Z,2.80
2022-12-09T16:27:48.794Z,2.80
2022-12-09T16:30:25.210Z,2.80
2022-12-09T16:32:53.188Z,2.80
2022-12-09T16:35:36.116Z,2.80
2022-12-09T16:38:11.766Z,2.80
2022-12-09T16:40:44.757Z,2.80
2022-12-09T16:43:20.497Z,2.80
2022-12-09T16:46:28.472Z,2.80
2022-12-09T16:48:57.258Z,2.80
2022-12-09T16:51:26.213Z,2.80
2022-12-09T16:53:54.387Z,2.80
2022-12-09T16:56:25.039Z,2.80
2022-12-09T16:58:52.778Z,2.80
2022-12-09T17:01:22.709Z,2.80
2022-12-09T17:03:52.381Z,2.80
2022-12-09T17:06:20.542Z,2.80
2022-12-09T17:08:48.004Z,2.90
2022-12-09T17:11:16.971Z,2.90
2022-12-09T17:13:43.931Z,2.80
2022-12-09T17:16:11.229Z,2.80
2022-12-09T17:18:39.460Z,2.80
2022-12-09T17:21:13.081Z,2.80
2022-12-09T17:23:41.064Z,2.80
2022-12-09T17:26:15.248Z,2.80
2022-12-09T17:28:43.760Z,2.70
2022-12-09T17:31:13.898Z,2.80
2022-12-09T17:33:41.220Z,2.80
2022-12-09T17:36:08.491Z,2.70
2022-12-09T17:38:35.871Z,2.70
2022-12-09T17:41:05.683Z,2.70
2022-12-09T17:43:32.831Z,2.70
2022-12-09T17:46:01.155Z,2.70
2022-12-09T17:48:29.645Z,2.70
2022-12-09T17:50:57.010Z,2.70
2022-12-09T17:53:24.676Z,2.70
2022-12-09T17:55:51.736Z,2.70
2022-12-09T17:58:18.778Z,2.70
2022-12-09T18:00:47.907Z,2.70
2022-12-09T18:03:27.349Z,2.70
2022-12-09T18:06:00.403Z,2.70
2022-12-09T18:08:29.744Z,2.70
2022-12-09T18:10:57.307Z,2.70
2022-12-09T18:13:24.662Z,2.70
2022-12-09T18:15:54.383Z,2.60
2022-12-09T18:18:22.193Z,2.70
2022-12-09T18:20:49.703Z,2.70
2022-12-09T18:23:17.089Z,2.60
2022-12-09T18:25:43.912Z,2.60
2022-12-09T18:28:10.780Z,2.60
2022-12-09T18:30:39.676Z,2.60
2022-12-09T18:33:06.743Z,2.60
2022-12-09T18:35:34.044Z,2.60
2022-12-09T18:38:09.688Z,2.60
2022-12-09T18:41:00.992Z,2.60
2022-12-09T18:43:39.776Z,2.60
2022-12-09T18:46:13.475Z,2.60
2022-12-09T18:48:40.963Z,2.60
2022-12-09T18:51:16.057Z,2.60
2022-12-09T18:53:43.309Z,2.60
2022-12-09T18:56:10.579Z,2.60
2022-12-09T18:59:04.664Z,2.60
2022-12-09T19:01:27.762Z,2.60
2022-12-09T19:03:57.315Z,2.60
2022-12-09T19:06:27.552Z,2.60
2022-12-09T19:09:07.299Z,2.60
2022-12-09T19:11:36.203Z,2.60
2022-12-09T19:14:05.170Z,2.60
2022-12-09T19:16:32.739Z,2.60
2022-12-09T19:19:05.336Z,2.60
2022-12-09T19:21:35.159Z,2.60
2022-12-09T19:24:02.173Z,2.60
2022-12-09T19:26:31.792Z,2.60
2022-12-09T19:29:05.085Z,2.60
2022-12-09T19:31:36.238Z,2.60
2022-12-09T19:34:15.887Z,2.60
2022-12-09T19:36:44.297Z,2.60
2022-12-09T19:39:13.202Z,2.70
2022-12-09T19:41:41.571Z,2.60
2022-12-09T19:44:10.104Z,2.70
2022-12-09T19:46:38.712Z,2.60
2022-12-09T19:49:05.852Z,2.70
2022-12-09T19:51:34.550Z,2.70
2022-12-09T19:54:02.225Z,2.70
2022-12-09T19:56:29.655Z,2.70
2022-12-09T19:58:57.202Z,2.70
2022-12-09T20:01:32.589Z,2.70
2022-12-09T20:04:25.433Z,2.70
2022-12-09T20:06:53.325Z,2.70
2022-12-09T20:09:24.447Z,2.70
2022-12-09T20:11:54.541Z,2.70
2022-12-09T20:14:21.550Z,2.70
2022-12-09T20:16:48.537Z,2.70
2022-12-09T20:19:15.484Z,2.60
2022-12-09T20:21:42.429Z,2.60
2022-12-09T20:24:09.795Z,2.60
2022-12-09T20:26:37.960Z,2.50
2022-12-09T20:29:08.288Z,2.60
2022-12-09T20:31:37.051Z,2.50
2022-12-09T20:34:11.205Z,2.50
2022-12-09T20:36:40.445Z,2.50
2022-12-09T20:39:12.634Z,2.50
2022-12-09T20:41:41.800Z,2.50
2022-12-09T20:44:09.988Z,2.50
2022-12-09T20:46:37.983Z,2.50
2022-12-09T20:49:05.037Z,2.50
2022-12-09T20:51:35.175Z,2.50
2022-12-09T20:54:02.973Z,2.50
2022-12-09T20:56:30.367Z,2.40
2022-12-09T20:58:58.078Z,2.40
2022-12-09T21:01:30.453Z,2.40
2022-12-09T21:03:59.117Z,2.40
2022-12-09T21:06:29.942Z,2.40
2022-12-09T21:09:00.425Z,2.30
2022-12-09T21:11:27.417Z,2.30
2022-12-09T21:13:58.611Z,2.30
2022-12-09T21:16:28.941Z,2.30
2022-12-09T21:18:58.601Z,2.30
2022-12-09T21:21:28.758Z,2.30
2022-12-09T21:23:55.997Z,2.40
2022-12-09T21:26:24.297Z,2.40
2022-12-09T21:28:52.364Z,2.40
2022-12-09T21:31:24.880Z,2.40
2022-12-09T21:33:54.413Z,2.40
2022-12-09T21:36:24.972Z,2.40
2022-12-09T21:38:52.976Z,2.40
2022-12-09T21:41:25.687Z,2.40
2022-12-09T21:43:57.969Z,2.40
2022-12-09T21:46:28.019Z,2.40
2022-12-09T21:49:03.284Z,2.40
2022-12-09T21:51:31.953Z,2.50
2022-12-09T21:54:06.766Z,2.50
2022-12-09T21:56:35.721Z,2.50
2022-12-09T21:59:05.551Z,2.50
2022-12-09T22:01:40.688Z,2.50
2022-12-09T22:04:11.823Z,2.50
2022-12-09T22:06:39.038Z,2.40
2022-12-09T22:09:07.562Z,2.40
2022-12-09T22:11:36.525Z,2.40
2022-12-09T22:14:03.980Z,2.40
2022-12-09T22:16:37.905Z,2.40
2022-12-09T22:19:08.492Z,2.40
2022-12-09T22:21:36.775Z,2.40
2022-12-09T22:24:06.541Z,2.40
2022-12-09T22:26:34.309Z,2.40
2022-12-09T22:29:03.605Z,2.40
2022-12-09T22:31:36.823Z,2.40
2022-12-09T22:34:16.542Z,2.30
2022-12-09T22:36:43.903Z,2.40
2022-12-09T22:39:18.017Z,2.40
2022-12-09T22:41:46.133Z,2.30
2022-12-09T22:44:15.440Z,2.30
2022-12-09T22:46:42.755Z,2.30
2022-12-09T22:49:12.968Z,2.30
2022-12-09T22:51:40.199Z,2.30
2022-12-09T22:54:10.665Z,2.30
2022-12-09T22:56:39.716Z,2.40
2022-12-09T22:59:07.056Z,2.40
2022-12-09T23:01:37.500Z,2.40
2022-12-09T23:04:06.964Z,2.40
2022-12-09T23:06:36.648Z,2.40
2022-12-09T23:09:04.684Z,2.40
2022-12-09T23:11:31.638Z,2.40
2022-12-09T23:14:00.169Z,2.40
2022-12-09T23:16:28.317Z,2.40
2022-12-09T23:18:56.915Z,2.40
2022-12-09T23:21:30.705Z,2.40
2022-12-09T23:24:00.730Z,2.40
2022-12-09T23:26:29.308Z,2.40
2022-12-09T23:28:59.432Z,2.40
2022-12-09T23:31:29.905Z,2.40
2022-12-09T23:33:57.239Z,2.40
2022-12-09T23:36:36.654Z,2.40
2022-12-09T23:39:12.016Z,2.30
2022-12-09T23:41:40.587Z,2.30
2022-12-09T23:44:16.022Z,2.30
2022-12-09T23:46:43.727Z,2.30
2022-12-09T23:49:11.328Z,2.40
2022-12-09T23:51:41.422Z,2.40
2022-12-09T23:54:09.654Z,2.30
2022-12-09T23:56:39.986Z,2.40
2022-12-09T23:59:11.513Z,2.40
